createdAt,value
2022-12-12T00:01:46.003Z,5.57
2022-12-12T00:04:13.848Z,6.30
2022-12-12T00:06:41.363Z,5.50
2022-12-12T00:09:09.615Z,5.90
2022-12-12T00:11:37.140Z,5.47
2022-12-12T00:14:05.393Z,4.55
2022-12-12T00:16:32.854Z,4.32
2022-12-12T00:19:01.677Z,5.38
2022-12-12T00:21:30.176Z,5.25
2022-12-12T00:23:58.405Z,5.05
2022-12-12T00:26:27.322Z,4.95
2022-12-12T00:28:54.939Z,4.90
2022-12-12T00:31:22.599Z,4.35
2022-12-12T00:33:50.326Z,5.05
2022-12-12T00:36:20.494Z,5.35
2022-12-12T00:38:48.193Z,5.22
2022-12-12T00:41:16.091Z,4.85
2022-12-12T00:43:43.572Z,4.78
2022-12-12T00:46:12.197Z,4.13
2022-12-12T00:48:39.745Z,4.40
2022-12-12T00:51:08.438Z,4.50
2022-12-12T00:53:37.652Z,4.82
2022-12-12T00:56:05.491Z,4.82
2022-12-12T00:58:33.700Z,4.97
2022-12-12T01:01:06.365Z,5.15
2022-12-12T01:03:34.725Z,4.25
2022-12-12T01:06:02.233Z,5.18
2022-12-12T01:08:29.877Z,4.43
2022-12-12T01:10:58.810Z,4.90
2022-12-12T01:13:26.930Z,4.70
2022-12-12T01:15:54.421Z,4.22
2022-12-12T01:18:22.104Z,4.80
2022-12-12T01:20:49.620Z,4.93
2022-12-12T01:23:17.158Z,4.82
2022-12-12T01:25:44.719Z,4.45
2022-12-12T01:28:13.903Z,5.18
2022-12-12T01:30:41.681Z,4.50
2022-12-12T01:33:09.226Z,4.82
2022-12-12T01:35:36.814Z,4.68
2022-12-12T01:38:04.393Z,5.30
2022-12-12T01:40:32.131Z,4.65
2022-12-12T01:42:59.822Z,4.78
2022-12-12T01:45:45.891Z,4.55
2022-12-12T01:48:14.893Z,4.45
2022-12-12T01:50:42.896Z,4.35
2022-12-12T01:53:10.697Z,4.95
2022-12-12T01:55:38.358Z,5.40
2022-12-12T01:58:06.055Z,5.30
2022-12-12T02:00:33.611Z,5.03
2022-12-12T02:03:01.310Z,5.47
2022-12-12T02:05:31.928Z,5.40
2022-12-12T02:08:00.848Z,6.07
2022-12-12T02:10:28.406Z,5.60
2022-12-12T02:13:01.027Z,5.50
2022-12-12T02:15:31.131Z,4.70
2022-12-12T02:18:08.661Z,4.50
2022-12-12T02:20:45.156Z,5.07
2022-12-12T02:23:33.775Z,5.28
2022-12-12T02:26:08.700Z,5.00
2022-12-12T02:28:51.075Z,5.15
2022-12-12T02:31:23.271Z,5.07
2022-12-12T02:33:56.511Z,5.47
2022-12-12T02:36:28.516Z,5.30
2022-12-12T02:38:58.636Z,5.70
2022-12-12T02:41:28.896Z,5.32
2022-12-12T02:44:00.478Z,5.10
2022-12-12T02:46:32.069Z,4.55
2022-12-12T02:49:01.677Z,5.03
2022-12-12T02:51:30.329Z,5.82
2022-12-12T02:53:59.761Z,5.45
2022-12-12T02:56:45.641Z,4.90
2022-12-12T02:59:14.137Z,6.60
2022-12-12T03:01:48.125Z,5.70
2022-12-12T03:04:37.919Z,5.97
2022-12-12T03:07:27.151Z,6.35
2022-12-12T03:10:00.740Z,7.18
2022-12-12T03:12:33.636Z,6.95
2022-12-12T03:15:03.291Z,6.45
2022-12-12T03:17:37.160Z,7.30
2022-12-12T03:20:07.621Z,7.40
2022-12-12T03:22:38.841Z,6.50
2022-12-12T03:25:09.084Z,7.95
2022-12-12T03:27:38.847Z,7.07
2022-12-12T03:30:09.283Z,6.15
2022-12-12T03:32:41.200Z,7.30
2022-12-12T03:35:12.129Z,7.65
2022-12-12T03:37:42.219Z,6.60
2022-12-12T03:40:11.116Z,6.50
2022-12-12T03:42:40.750Z,7.32
2022-12-12T03:45:12.063Z,7.30
2022-12-12T03:47:43.410Z,7.55
2022-12-12T03:50:12.816Z,7.15
2022-12-12T03:52:42.655Z,7.35
2022-12-12T03:55:14.204Z,7.18
2022-12-12T03:57:43.949Z,6.95
2022-12-12T04:00:14.882Z,6.85
2022-12-12T04:02:47.697Z,6.85
2022-12-12T04:05:17.478Z,7.97
2022-12-12T04:07:46.220Z,7.15
2022-12-12T04:10:31.168Z,7.55
2022-12-12T04:13:07.123Z,6.80
2022-12-12T04:15:47.263Z,6.32
2022-12-12T04:18:19.818Z,7.72
2022-12-12T04:21:08.558Z,7.97
2022-12-12T04:23:38.328Z,8.15
2022-12-12T04:26:26.570Z,7.75
2022-12-12T04:28:57.117Z,7.93
2022-12-12T04:31:26.390Z,10.23
2022-12-12T04:33:58.940Z,10.43
2022-12-12T04:36:27.295Z,10.13
2022-12-12T04:38:56.172Z,9.18
2022-12-12T04:41:24.175Z,8.25
2022-12-12T04:43:52.575Z,8.32
2022-12-12T04:46:22.783Z,7.75
2022-12-12T04:48:53.687Z,7.68
2022-12-12T04:51:25.424Z,6.82
2022-12-12T04:53:55.638Z,7.53
2022-12-12T04:56:25.664Z,7.22
2022-12-12T04:58:53.486Z,6.72
2022-12-12T05:01:24.052Z,8.88
2022-12-12T05:03:55.500Z,8.20
2022-12-12T05:06:28.410Z,6.28
2022-12-12T05:08:56.518Z,7.80
2022-12-12T05:11:24.601Z,7.82
2022-12-12T05:13:52.307Z,6.80
2022-12-12T05:16:22.538Z,7.28
2022-12-12T05:18:50.233Z,8.02
2022-12-12T05:21:18.111Z,6.88
2022-12-12T05:23:47.161Z,7.13
2022-12-12T05:26:19.538Z,7.00
2022-12-12T05:28:47.118Z,7.70
2022-12-12T05:31:14.735Z,8.25
2022-12-12T05:33:42.376Z,8.75
2022-12-12T05:36:10.195Z,8.52
2022-12-12T05:38:37.995Z,9.02
2022-12-12T05:41:07.249Z,8.88
2022-12-12T05:43:34.910Z,9.13
2022-12-12T05:46:02.517Z,8.48
2022-12-12T05:48:29.984Z,9.45
2022-12-12T05:51:01.680Z,9.43
2022-12-12T05:53:29.191Z,8.07
2022-12-12T05:55:56.731Z,8.57
2022-12-12T05:58:25.808Z,8.60
2022-12-12T06:00:57.240Z,7.65
2022-12-12T06:03:27.669Z,7.93
2022-12-12T06:05:55.241Z,8.25
2022-12-12T06:08:25.136Z,7.15
2022-12-12T06:10:52.904Z,7.78
2022-12-12T06:13:22.838Z,8.68
2022-12-12T06:15:51.764Z,8.65
2022-12-12T06:18:19.307Z,8.50
2022-12-12T06:20:46.895Z,8.60
2022-12-12T06:23:14.449Z,9.55
2022-12-12T06:25:42.009Z,8.45
2022-12-12T06:28:09.568Z,9.35
2022-12-12T06:30:37.063Z,8.18
2022-12-12T06:33:05.949Z,8.98
2022-12-12T06:35:33.545Z,9.15
2022-12-12T06:38:01.040Z,8.50
2022-12-12T06:40:28.681Z,8.13
2022-12-12T06:42:56.218Z,8.98
2022-12-12T06:45:23.737Z,8.68
2022-12-12T06:47:51.586Z,8.38
2022-12-12T06:50:23.888Z,7.72
2022-12-12T06:52:51.602Z,8.35
2022-12-12T06:55:19.266Z,8.68
2022-12-12T06:57:46.835Z,9.38
2022-12-12T07:00:14.915Z,9.73
2022-12-12T07:02:42.486Z,11.45
2022-12-12T07:05:10.570Z,10.68
2022-12-12T07:07:39.813Z,11.95
2022-12-12T07:10:07.869Z,11.68
2022-12-12T07:12:35.659Z,11.85
2022-12-12T07:15:03.156Z,12.07
2022-12-12T07:17:30.761Z,11.98
2022-12-12T07:19:58.270Z,10.45
2022-12-12T07:22:25.827Z,10.00
2022-12-12T07:24:54.685Z,9.85
2022-12-12T07:27:22.256Z,9.35
2022-12-12T07:29:49.777Z,10.23
2022-12-12T07:32:17.343Z,10.52
2022-12-12T07:34:44.905Z,10.40
2022-12-12T07:37:12.432Z,10.07
2022-12-12T07:39:39.964Z,11.48
2022-12-12T07:42:09.679Z,8.93
2022-12-12T07:44:37.207Z,10.60
2022-12-12T07:47:05.882Z,10.25
2022-12-12T07:49:33.549Z,9.80
2022-12-12T07:52:01.071Z,10.13
2022-12-12T07:54:28.663Z,10.30
2022-12-12T07:56:56.151Z,11.80
2022-12-12T07:59:25.011Z,10.30
2022-12-12T08:01:52.751Z,10.57
2022-12-12T08:04:20.339Z,10.50
2022-12-12T08:06:49.984Z,11.52
2022-12-12T08:09:20.105Z,11.52
2022-12-12T08:11:47.670Z,12.60
2022-12-12T08:14:15.299Z,11.57
2022-12-12T08:16:44.253Z,10.30
2022-12-12T08:19:12.588Z,10.85
2022-12-12T08:21:40.135Z,10.27
2022-12-12T08:24:08.997Z,11.10
2022-12-12T08:26:36.486Z,10.52
2022-12-12T08:29:04.202Z,11.10
2022-12-12T08:31:32.277Z,12.95
2022-12-12T08:34:01.613Z,11.65
2022-12-12T08:36:31.017Z,11.80
2022-12-12T08:38:59.756Z,12.32
2022-12-12T08:41:27.295Z,11.23
2022-12-12T08:43:54.823Z,11.93
2022-12-12T08:46:22.502Z,12.85
2022-12-12T08:48:50.511Z,11.18
2022-12-12T08:51:19.756Z,11.75
2022-12-12T08:53:47.402Z,11.48
2022-12-12T08:56:15.092Z,11.70
2022-12-12T08:58:42.864Z,12.35
2022-12-12T09:01:11.102Z,11.32
2022-12-12T09:03:38.709Z,11.13
2022-12-12T09:06:06.945Z,12.75
2022-12-12T09:08:35.934Z,13.07
2022-12-12T09:11:04.382Z,12.23
2022-12-12T09:13:32.086Z,14.00
2022-12-12T09:16:00.120Z,12.45
2022-12-12T09:18:27.981Z,12.52
2022-12-12T09:20:56.853Z,11.50
2022-12-12T09:23:24.949Z,13.00
2022-12-12T09:25:54.344Z,13.48
2022-12-12T09:28:23.076Z,12.07
2022-12-12T09:30:50.851Z,10.80
2022-12-12T09:33:18.780Z,11.30
2022-12-12T09:35:46.432Z,10.65
2022-12-12T09:38:15.280Z,11.95
2022-12-12T09:40:47.824Z,12.40
2022-12-12T09:43:18.236Z,12.88
2022-12-12T09:45:46.150Z,13.48
2022-12-12T09:48:18.540Z,13.38
2022-12-12T09:50:47.884Z,14.07
2022-12-12T09:53:17.588Z,12.80
2022-12-12T09:55:48.483Z,12.93
2022-12-12T09:58:21.699Z,12.68
2022-12-12T10:00:52.846Z,11.80
2022-12-12T10:03:27.793Z,10.82
2022-12-12T10:06:20.479Z,12.02
2022-12-12T10:08:51.052Z,11.73
2022-12-12T10:11:39.173Z,12.77
2022-12-12T10:14:09.964Z,12.98
2022-12-12T10:16:38.590Z,12.52
2022-12-12T10:19:08.724Z,11.95
2022-12-12T10:21:40.747Z,12.70
2022-12-12T10:24:13.320Z,12.80
2022-12-12T10:26:42.909Z,12.88
2022-12-12T10:29:12.771Z,12.70
2022-12-12T10:31:45.374Z,13.13
2022-12-12T10:34:18.996Z,13.20
2022-12-12T10:36:54.072Z,13.60
2022-12-12T10:39:26.506Z,13.40
2022-12-12T10:41:56.319Z,13.05
2022-12-12T10:44:34.692Z,13.07
2022-12-12T10:47:04.308Z,14.13
2022-12-12T10:49:32.172Z,13.05
2022-12-12T10:52:01.855Z,13.57
2022-12-12T10:54:30.183Z,13.93
2022-12-12T10:57:09.199Z,14.63
2022-12-12T10:59:45.970Z,14.70
2022-12-12T11:02:31.714Z,13.25
2022-12-12T11:05:00.807Z,13.75
2022-12-12T11:07:29.286Z,12.20
2022-12-12T11:10:01.910Z,12.13
2022-12-12T11:12:33.885Z,10.93
2022-12-12T11:15:06.493Z,11.90
2022-12-12T11:17:34.855Z,12.60
2022-12-12T11:20:03.841Z,12.80
2022-12-12T11:22:32.992Z,11.25
2022-12-12T11:25:01.132Z,13.65
2022-12-12T11:27:30.470Z,12.73
2022-12-12T11:30:00.160Z,12.48
2022-12-12T11:32:31.835Z,13.73
2022-12-12T11:35:00.764Z,12.98
2022-12-12T11:37:29.530Z,12.63
2022-12-12T11:39:58.108Z,11.60
2022-12-12T11:42:27.518Z,11.95
2022-12-12T11:44:59.446Z,13.15
2022-12-12T11:47:28.054Z,11.80
2022-12-12T11:49:57.970Z,11.88
2022-12-12T11:52:27.198Z,12.25
2022-12-12T11:54:54.878Z,13.13
2022-12-12T11:57:31.864Z,11.90
2022-12-12T12:00:06.024Z,12.65
2022-12-12T12:02:57.550Z,11.77
2022-12-12T12:05:29.022Z,12.30
2022-12-12T12:08:06.150Z,11.43
2022-12-12T12:10:39.765Z,12.07
2022-12-12T12:13:13.028Z,12.30
2022-12-12T12:15:46.823Z,12.93
2022-12-12T12:18:31.358Z,11.52
2022-12-12T12:21:09.364Z,12.18
2022-12-12T12:23:44.155Z,13.90
2022-12-12T12:26:17.481Z,10.95
2022-12-12T12:29:01.954Z,12.18
2022-12-12T12:31:33.236Z,13.50
2022-12-12T12:34:06.534Z,12.70
2022-12-12T12:36:41.292Z,13.02
2022-12-12T12:39:15.097Z,11.05
2022-12-12T12:41:52.692Z,11.75
2022-12-12T12:44:27.060Z,11.95
2022-12-12T12:46:58.734Z,10.52
2022-12-12T12:49:28.701Z,9.82
2022-12-12T12:52:00.116Z,9.45
2022-12-12T12:57:17.389Z,10.63
2022-12-12T12:59:46.785Z,10.82
2022-12-12T13:02:21.176Z,11.00
2022-12-12T13:04:59.139Z,12.27
2022-12-12T13:07:34.928Z,12.75
2022-12-12T13:10:09.093Z,13.20
2022-12-12T13:12:39.579Z,12.18
2022-12-12T13:15:08.708Z,12.18
2022-12-12T13:17:45.390Z,12.90
2022-12-12T13:20:16.982Z,12.98
2022-12-12T13:22:50.294Z,10.45
2022-12-12T13:25:21.680Z,10.87
2022-12-12T13:27:52.428Z,12.23
2022-12-12T13:30:22.384Z,11.18
2022-12-12T13:33:03.370Z,11.30
2022-12-12T13:35:32.583Z,11.45
2022-12-12T13:38:01.611Z,11.30
2022-12-12T13:40:30.461Z,9.88
2022-12-12T13:43:02.673Z,10.90
2022-12-12T13:45:42.849Z,11.32
2022-12-12T13:48:31.029Z,11.55
2022-12-12T13:51:16.606Z,10.73
2022-12-12T13:53:46.184Z,10.00
2022-12-12T13:56:33.857Z,11.18
2022-12-12T13:59:02.186Z,10.85
2022-12-12T14:01:34.529Z,12.00
2022-12-12T14:04:03.430Z,12.35
2022-12-12T14:06:31.655Z,11.00
2022-12-12T14:09:00.852Z,10.77
2022-12-12T14:11:31.718Z,13.75
2022-12-12T14:14:07.033Z,10.15
2022-12-12T14:16:35.207Z,10.40
2022-12-12T14:19:19.124Z,10.55
2022-12-12T14:21:47.725Z,10.25
2022-12-12T14:24:34.149Z,12.43
2022-12-12T14:27:04.267Z,11.02
2022-12-12T14:29:32.943Z,11.38
2022-12-12T14:32:22.622Z,10.23
2022-12-12T14:34:53.838Z,10.43
2022-12-12T14:37:39.255Z,11.55
2022-12-12T14:40:18.529Z,10.88
2022-12-12T14:43:20.919Z,10.95
2022-12-12T14:45:53.128Z,9.88
2022-12-12T14:48:22.459Z,10.25
2022-12-12T14:51:02.301Z,10.00
2022-12-12T14:53:32.333Z,10.20
2022-12-12T14:56:01.414Z,9.85
2022-12-12T14:58:32.194Z,10.27
2022-12-12T15:01:00.657Z,10.57
2022-12-12T15:03:30.696Z,9.98
2022-12-12T15:06:20.234Z,10.40
2022-12-12T15:08:48.144Z,9.30
2022-12-12T15:11:16.494Z,10.52
2022-12-12T15:13:51.757Z,10.00
2022-12-12T15:16:19.873Z,10.40
2022-12-12T15:18:48.135Z,10.77
2022-12-12T15:21:16.341Z,11.95
2022-12-12T15:23:43.859Z,11.70
2022-12-12T15:26:16.993Z,11.07
2022-12-12T15:28:45.775Z,11.20
2022-12-12T15:31:16.332Z,11.90
2022-12-12T15:33:44.767Z,11.85
2022-12-12T15:36:18.293Z,10.43
2022-12-12T15:38:46.074Z,11.38
2022-12-12T15:41:15.324Z,11.02
2022-12-12T15:43:45.174Z,10.95
2022-12-12T15:46:15.140Z,12.35
2022-12-12T15:48:44.352Z,12.65
2022-12-12T15:51:12.272Z,10.85
2022-12-12T15:53:40.904Z,12.55
2022-12-12T15:56:10.018Z,11.23
2022-12-12T15:58:41.872Z,11.20
2022-12-12T16:01:21.447Z,9.82
2022-12-12T16:03:59.361Z,11.60
2022-12-12T16:06:28.052Z,10.35
2022-12-12T16:09:00.730Z,11.77
2022-12-12T16:11:38.330Z,11.57
2022-12-12T16:14:06.394Z,12.85
2022-12-12T16:16:39.447Z,11.45
2022-12-12T16:19:21.510Z,9.90
2022-12-12T16:21:51.989Z,11.70
2022-12-12T16:24:22.396Z,10.45
2022-12-12T16:26:50.199Z,10.63
2022-12-12T16:29:17.899Z,11.50
2022-12-12T16:31:46.007Z,10.68
2022-12-12T16:34:14.920Z,11.73
2022-12-12T16:36:42.687Z,11.80
2022-12-12T16:39:10.779Z,11.50
2022-12-12T16:41:38.540Z,12.68
2022-12-12T16:44:06.437Z,12.00
2022-12-12T16:46:33.975Z,11.93
2022-12-12T16:49:04.666Z,12.27
2022-12-12T16:51:35.290Z,12.20
2022-12-12T16:54:02.996Z,13.13
2022-12-12T16:56:31.472Z,11.00
2022-12-12T16:59:01.546Z,12.32
2022-12-12T17:01:32.238Z,12.85
2022-12-12T17:04:02.135Z,12.25
2022-12-12T17:06:30.520Z,13.18
2022-12-12T17:08:59.459Z,11.75
2022-12-12T17:11:27.072Z,9.93
2022-12-12T17:13:54.714Z,10.93
2022-12-12T17:16:27.581Z,10.77
2022-12-12T17:18:55.598Z,12.90
2022-12-12T17:21:23.348Z,12.00
2022-12-12T17:23:51.018Z,12.10
2022-12-12T17:26:20.107Z,12.40
2022-12-12T17:28:47.607Z,12.80
2022-12-12T17:31:15.588Z,13.63
2022-12-12T17:33:50.744Z,13.25
2022-12-12T17:36:19.269Z,11.57
2022-12-12T17:38:47.489Z,13.52
2022-12-12T17:41:15.483Z,13.63
2022-12-12T17:43:44.896Z,11.73
2022-12-12T17:46:14.484Z,14.15
2022-12-12T17:48:43.198Z,13.00
2022-12-12T17:51:12.652Z,12.43
2022-12-12T17:53:40.449Z,12.88
2022-12-12T17:56:08.985Z,11.52
2022-12-12T17:58:37.846Z,11.80
2022-12-12T18:01:13.530Z,12.32
2022-12-12T18:03:41.188Z,12.50
2022-12-12T18:06:09.327Z,11.45
2022-12-12T18:08:36.822Z,12.40
2022-12-12T18:11:06.603Z,13.38
2022-12-12T18:13:34.378Z,11.05
2022-12-12T18:16:01.995Z,12.80
2022-12-12T18:18:42.087Z,12.88
2022-12-12T18:28:29.864Z,10.80
2022-12-12T18:30:57.384Z,12.55
2022-12-12T18:33:25.040Z,11.85
2022-12-12T18:36:00.280Z,12.98
2022-12-12T18:38:28.055Z,11.30
2022-12-12T18:40:56.158Z,13.10
2022-12-12T18:43:28.797Z,14.40
2022-12-12T18:46:04.417Z,12.48
2022-12-12T18:48:33.136Z,12.52
2022-12-12T18:51:06.281Z,10.73
2022-12-12T18:53:41.299Z,12.80
2022-12-12T18:56:10.664Z,11.32
2022-12-12T18:58:38.469Z,13.65
2022-12-12T19:01:07.020Z,14.50
2022-12-12T19:03:35.129Z,13.05
2022-12-12T19:06:06.319Z,12.18
2022-12-12T19:08:33.862Z,13.10
2022-12-12T19:11:01.541Z,13.57
2022-12-12T19:13:29.131Z,13.98
2022-12-12T19:15:57.901Z,14.40
2022-12-12T19:18:25.467Z,13.05
2022-12-12T19:20:54.632Z,12.55
2022-12-12T19:23:23.666Z,14.60
2022-12-12T19:25:51.508Z,12.85
2022-12-12T19:28:19.037Z,15.32
2022-12-12T19:31:00.347Z,15.35
2022-12-12T19:33:30.916Z,13.85
2022-12-12T19:35:58.491Z,14.52
2022-12-12T19:38:27.545Z,14.10
2022-12-12T19:40:55.025Z,13.13
2022-12-12T19:43:22.727Z,14.80
2022-12-12T19:45:52.832Z,12.95
2022-12-12T19:48:20.442Z,12.73
2022-12-12T19:50:48.665Z,13.70
2022-12-12T19:53:16.680Z,14.43
2022-12-12T19:56:35.793Z,14.30
2022-12-12T19:59:09.949Z,13.40
2022-12-12T20:01:42.175Z,14.88
2022-12-12T20:04:45.711Z,15.32
2022-12-12T20:07:25.802Z,14.98
2022-12-12T20:12:58.148Z,15.63
2022-12-12T20:15:32.942Z,14.90
2022-12-12T20:18:16.592Z,14.52
2022-12-12T20:20:49.034Z,15.05
2022-12-12T20:23:20.080Z,14.65
2022-12-12T20:25:47.706Z,14.45
2022-12-12T20:28:15.532Z,15.00
2022-12-12T20:30:50.660Z,14.48
2022-12-12T20:33:20.779Z,14.27
2022-12-12T20:35:48.451Z,14.90
2022-12-12T20:38:16.071Z,13.23
2022-12-12T20:40:43.860Z,14.95
2022-12-12T20:43:11.369Z,14.85
2022-12-12T20:45:39.275Z,15.05
2022-12-12T20:48:08.417Z,16.30
2022-12-12T20:50:36.347Z,14.85
2022-12-12T20:53:03.941Z,15.02
2022-12-12T20:55:33.629Z,15.98
2022-12-12T20:58:01.760Z,13.95
2022-12-12T21:00:30.770Z,14.80
2022-12-12T21:02:58.687Z,16.67
2022-12-12T21:05:29.908Z,15.90
2022-12-12T21:07:57.757Z,15.00
2022-12-12T21:10:27.820Z,16.48
2022-12-12T21:12:55.673Z,16.40
2022-12-12T21:15:23.838Z,18.77
2022-12-12T21:17:51.327Z,17.23
2022-12-12T21:20:19.072Z,16.13
2022-12-12T21:22:48.242Z,15.68
2022-12-12T21:25:16.047Z,15.20
2022-12-12T21:27:43.899Z,15.95
2022-12-12T21:42:42.736Z,17.20
2022-12-12T21:45:17.675Z,16.63
2022-12-12T21:47:45.223Z,15.95
2022-12-12T21:50:13.926Z,17.70
2022-12-12T21:52:41.478Z,16.23
2022-12-12T21:55:10.620Z,17.17
2022-12-12T21:57:40.201Z,16.83
2022-12-12T22:00:10.371Z,17.17
2022-12-12T22:02:40.463Z,16.25
2022-12-12T22:05:43.431Z,17.23
2022-12-12T22:08:11.354Z,17.25
2022-12-12T22:10:39.386Z,16.65
2022-12-12T22:13:08.600Z,18.30
2022-12-12T22:15:37.521Z,17.25
2022-12-12T22:18:05.365Z,16.75
2022-12-12T22:20:38.251Z,19.02
2022-12-12T22:23:09.122Z,15.57
2022-12-12T22:25:45.983Z,15.48
2022-12-12T22:28:27.526Z,15.45
2022-12-12T22:31:07.551Z,17.05
2022-12-12T22:33:35.192Z,16.65
2022-12-12T22:36:06.468Z,17.33
2022-12-12T22:38:38.027Z,14.40
2022-12-12T22:44:28.002Z,14.27
2022-12-12T22:46:59.104Z,14.60
2022-12-12T22:49:27.356Z,16.17
2022-12-12T22:51:55.869Z,15.95
2022-12-12T22:54:26.402Z,15.13
2022-12-12T22:56:54.089Z,14.50
2022-12-12T22:59:22.169Z,15.98
2022-12-12T23:01:52.677Z,14.95
2022-12-12T23:04:21.620Z,16.33
2022-12-12T23:06:49.503Z,17.20
2022-12-12T23:09:21.353Z,17.13
2022-12-12T23:11:57.907Z,15.77
2022-12-12T23:14:29.470Z,17.23
2022-12-12T23:17:08.038Z,17.17
2022-12-12T23:19:38.587Z,17.65
2022-12-12T23:22:06.140Z,17.45
2022-12-12T23:24:39.839Z,17.30
2022-12-12T23:27:07.505Z,16.92
2022-12-12T23:29:35.280Z,16.80
2022-12-12T23:32:03.097Z,18.15
2022-12-12T23:34:31.310Z,19.02
2022-12-12T23:37:00.567Z,16.88
2022-12-12T23:39:28.222Z,16.80
2022-12-12T23:41:55.896Z,17.55
2022-12-12T23:44:24.234Z,17.20
2022-12-12T23:46:52.083Z,16.27
2022-12-12T23:49:21.585Z,16.58
2022-12-12T23:51:49.943Z,18.65
2022-12-12T23:54:19.885Z,20.45
2022-12-12T23:56:47.941Z,16.70
2022-12-12T23:59:18.254Z,17.92
